Terminal Aerodrome Forecast
Issued by NWS Rapid City, SD

Home | Current Version | Previous Version | Text Only | Print | Product List | Glossary Off
Versions: 1 2 3 4 5 6 7 8 9 10 11 12 13 14 15 16 17 18

000
FTUS43 KUNR 232332
TAFRAP
TAF
KRAP 232332Z 2400/2424 02014KT 2SM -SN SCT009 OVC015
     FM240200 02013KT 1 1/2SM -SN OVC008
     FM240700 01011KT 3SM -SN OVC013
     FM240900 36009KT P6SM OVC005
     FM241300 36011KT P6SM OVC020
     FM241900 03008KT P6SM BKN070=

USA.gov is the U.S. government's official web portal to all federal, state and local government web resources and services.